Bei Facebook empfehlenBei Twitter postenGoogle plusPinterest

Das Wetter im Erzgebirge am 16.04.2015

Wetter und Klima am 16.04.2015 Holzhau im Erzgebirge (630m ü.NN)
Letzte gemessene Temperatur und Uhrzeit der Messung23:45:00 Uhr6.30 °C
Temperatur (Maximum / Höchstwert) und Uhrzeit der Messung15:15:00 Uhr15.80 °C
Temperatur (Minimum / Tiefstwert) und Uhrzeit der Messung06:45:002.60 °C
Errechneter Absolutwert der Temperaturschwankungen zwischen Tmin und Tmax des Tages13.20 K
Errechnete Tagesmitteltemperatur9.10625 °C
Gesamt - Niederschlag des Tages (in flüssiger Form)0.00 Liter / m²
Luftdruck (Maximum / Höchstwert) und Zeitpunkt der Messung11:00:00 Uhr1012.20 hPa
Luftdruck (Minimum / Tiefstwert) und Zeitpunkt der Messung05:45:00 Uhr1010.60 hPa
Errechneter Absolutwert der Luftdruckschwankungen des Tages1.60 hPa
Höchste gemessene Windgeschwindigkeit und Uhrzeit der Messung12:15:00 Uhr10.44 km/h
Errechnete Windhäufigkeit in Relation zu den Messwerten des Tages10.41667 %
Niedrigste Windkühle (Windchill) und Zeitpunkt der Messung06:45:00 Uhr2.60 °C
Taupunkt (Maximum / Höchstwert) und Uhrzeit der Messung13:45:00 Uhr8.30 °C
Taupunkt (Minimum / Tiefstwert) und Uhrzeit der Messung06:45:000.80 °C
Anzahl der automatisch eingelesenen Messwerte 96

Detaillierte Wetter- und Klima- Messwerte für den 16.04.2015 in Holzhau im Erzgebirge (630m ü.NN)
ZeitTemperaturLuftdruckRel. LuftfeuchteWindWindrichtungWindchillTaupunktNiederschlag l/m²
23:45:006.30 °C1011.60 hPa78.00 %2.80 °C 
23:30:006.80 °C1011.60 hPa78.00 %3.20 °C 
23:15:007.00 °C1011.50 hPa79.00 %3.60 °C 
23:00:007.10 °C1011.60 hPa79.00 %3.70 °C 
22:45:007.20 °C1011.60 hPa79.00 %3.80 °C 
22:30:007.30 °C1011.70 hPa81.00 %4.30 °C 
22:15:007.30 °C1011.40 hPa82.00 %4.40 °C 
22:00:007.30 °C1011.60 hPa81.00 %4.30 °C 
21:45:007.50 °C1011.40 hPa81.00 %4.50 °C 
21:30:007.60 °C1011.50 hPa82.00 %4.70 °C 
21:15:007.50 °C1011.60 hPa82.00 %4.60 °C 
21:00:007.60 °C1011.40 hPa81.00 %4.60 °C 
20:45:007.80 °C1011.30 hPa81.00 %4.70 °C 
20:30:007.90 °C1011.30 hPa81.00 %4.80 °C 
20:15:008.10 °C1011.10 hPa80.00 %4.90 °C 
20:00:008.50 °C1011.00 hPa79.00 %5.10 °C 
19:45:008.90 °C1010.90 hPa77.00 %5.10 °C 
19:30:009.30 °C1010.90 hPa77.00 %5.50 °C 
19:15:009.50 °C1011.20 hPa76.00 %5.50 °C 
19:00:0010.10 °C1011.20 hPa75.00 %5.90 °C 
18:45:0010.40 °C1011.20 hPa73.00 %5.80 °C 
18:30:0010.90 °C1011.30 hPa72.00 %6.10 °C 
18:15:0011.60 °C1011.50 hPa71.00 %6.50 °C 
18:00:0011.90 °C1011.30 hPa71.00 %6.80 °C 
17:45:0012.40 °C1011.30 hPa68.00 %6.70 °C 
17:30:0013.20 °C1011.30 hPa68.00 %7.40 °C 
17:15:0013.70 °C1011.20 hPa67.00 %7.70 °C 
17:00:0014.00 °C1011.20 hPa66.00 %7.80 °C 
16:45:0014.30 °C1011.30 hPa65.00 %7.80 °C 
16:30:0014.80 °C1011.10 hPa64.00 %8.10 °C 
16:15:0014.70 °C1011.30 hPa63.00 %7.70 °C 
16:00:0014.80 °C1011.40 hPa60.00 %5.40 km/hWNW15.10 °C7.10 °C 
15:45:0015.60 °C1011.30 hPa58.00 %5.40 km/hNW16.00 °C7.40 °C 
15:30:0015.50 °C1011.40 hPa60.00 %7.80 °C 
15:15:0015.80 °C1011.60 hPa56.00 %7.00 °C 
15:00:0015.80 °C1011.90 hPa59.00 %7.80 °C 
14:45:0015.50 °C1011.90 hPa58.00 %9.36 km/hNW15.30 °C7.30 °C 
14:30:0015.60 °C1012.00 hPa60.00 %7.90 °C 
14:15:0015.40 °C1012.00 hPa60.00 %7.70 °C 
14:00:0015.80 °C1012.00 hPa60.00 %8.10 °C 
13:45:0015.10 °C1012.10 hPa64.00 %8.30 °C 
13:30:0015.40 °C1012.00 hPa62.00 %8.20 °C 
13:15:0015.80 °C1012.10 hPa60.00 %8.10 °C 
13:00:0015.40 °C1011.70 hPa59.00 %7.56 km/hWNW15.40 °C7.40 °C 
12:45:0014.80 °C1012.00 hPa62.00 %7.60 °C 
12:30:0014.80 °C1012.00 hPa62.00 %7.60 °C 
12:15:0014.80 °C1012.00 hPa62.00 %10.44 km/hWSW14.30 °C7.60 °C 
12:00:0014.90 °C1012.10 hPa61.00 %5.40 km/hWNW15.20 °C7.50 °C 
11:45:0014.30 °C1012.10 hPa63.00 %5.40 km/hWNW14.50 °C7.40 °C 
11:30:0013.90 °C1011.90 hPa62.00 %9.72 km/hWNW13.30 °C6.70 °C 
11:15:0013.60 °C1012.00 hPa63.00 %6.70 °C 
11:00:0013.50 °C1012.20 hPa63.00 %6.60 °C 
10:45:0012.80 °C1011.90 hPa65.00 %6.40 °C 
10:30:0012.30 °C1011.90 hPa65.00 %5.90 °C 
10:15:0012.20 °C1011.80 hPa68.00 %6.50 °C 
10:00:0012.10 °C1011.60 hPa68.00 %8.28 km/hSSW11.40 °C6.40 °C 
09:45:0011.70 °C1011.50 hPa70.00 %6.40 °C 
09:30:0011.10 °C1011.80 hPa72.00 %6.30 °C 
09:15:0010.60 °C1012.00 hPa76.00 %6.60 °C 
09:00:009.40 °C1011.70 hPa81.00 %6.30 °C 
08:45:008.20 °C1011.70 hPa86.00 %6.00 °C 
08:30:006.90 °C1011.50 hPa87.00 %4.90 °C 
08:15:006.00 °C1011.50 hPa87.00 %4.00 °C 
08:00:005.20 °C1011.70 hPa88.00 %3.40 °C 
07:45:004.40 °C1011.80 hPa89.00 %2.80 °C 
07:30:003.80 °C1011.50 hPa89.00 %2.20 °C 
07:15:003.20 °C1011.50 hPa89.00 %1.60 °C 
07:00:002.90 °C1011.30 hPa89.00 %1.30 °C 
06:45:002.60 °C1011.10 hPa88.00 %0.80 °C 
06:30:002.60 °C1011.20 hPa88.00 %0.80 °C 
06:15:002.90 °C1010.70 hPa88.00 %1.10 °C 
06:00:002.80 °C1010.70 hPa88.00 %1.00 °C 
05:45:002.90 °C1010.60 hPa87.00 %1.00 °C 
05:30:003.30 °C1010.60 hPa87.00 %1.30 °C 
05:15:003.40 °C1010.60 hPa87.00 %1.40 °C 
05:00:003.50 °C1010.90 hPa87.00 %1.50 °C 
04:45:003.80 °C1010.90 hPa87.00 %1.80 °C 
04:30:003.90 °C1010.90 hPa86.00 %1.80 °C 
04:15:004.10 °C1010.90 hPa86.00 %5.76 km/hOSO2.80 °C2.00 °C 
04:00:004.30 °C1010.90 hPa86.00 %2.20 °C 
03:45:004.40 °C1011.20 hPa85.00 %2.10 °C 
03:30:004.60 °C1011.40 hPa85.00 %2.30 °C 
03:15:004.90 °C1011.40 hPa84.00 %2.40 °C 
03:00:005.10 °C1011.40 hPa85.00 %2.80 °C 
02:45:005.30 °C1011.50 hPa84.00 %2.80 °C 
02:30:005.30 °C1011.60 hPa85.00 %3.00 °C 
02:15:005.30 °C1011.60 hPa85.00 %3.00 °C 
02:00:005.00 °C1011.60 hPa84.00 %2.50 °C 
01:45:005.10 °C1011.60 hPa84.00 %2.60 °C 
01:30:005.10 °C1011.90 hPa83.00 %2.50 °C 
01:15:005.30 °C1011.90 hPa82.00 %2.50 °C 
01:00:005.60 °C1012.00 hPa81.00 %2.60 °C 
00:45:006.10 °C1012.20 hPa80.00 %2.90 °C 
00:30:006.50 °C1012.20 hPa80.00 %3.30 °C 
00:15:006.60 °C1012.00 hPa80.00 %3.40 °C 
00:00:006.50 °C1011.90 hPa80.00 %3.30 °C 

Permanenter Link zu dieser Seite: Wetter im Erzgebirge am 16.04.2015
Performance-Info: Die Erstellung der Seite / Statistik(en) / Tabelle(n) erforderte 5 Datenbankserver-Abfrage(n) und dauerte 101 Millisekunden. (Dieser Messwert ist von der Gesamt-Auslastung des Servers abhängig.)
Erzgebirge - Wetter | Erzgebirge - Wetter (Mobilgeräte) | Komplette Klimadatenbank